createdAt,value
2023-02-02T00:00:46.726Z,115.79
2023-02-02T00:01:46.735Z,115.70
2023-02-02T00:02:46.785Z,108.81
2023-02-02T00:03:46.882Z,118.31
2023-02-02T00:04:46.768Z,117.77
2023-02-02T00:05:46.781Z,121.28
2023-02-02T00:06:46.807Z,114.60
2023-02-02T00:07:46.807Z,122.58
2023-02-02T00:08:46.813Z,129.38
2023-02-02T00:09:46.831Z,133.87
2023-02-02T00:10:46.847Z,126.41
2023-02-02T00:11:46.853Z,134.15
2023-02-02T00:12:46.883Z,128.61
2023-02-02T00:13:46.894Z,115.34
2023-02-02T00:14:46.897Z,129.44
2023-02-02T00:15:46.950Z,130.40
2023-02-02T00:16:46.929Z,129.88
2023-02-02T00:17:46.958Z,132.34
2023-02-02T00:18:46.963Z,124.43
2023-02-02T00:19:46.999Z,123.90
2023-02-02T00:20:46.998Z,117.20
2023-02-02T00:21:47.010Z,118.05
2023-02-02T00:22:47.040Z,111.46
2023-02-02T00:23:47.052Z,123.70
2023-02-02T00:24:47.080Z,120.75
2023-02-02T00:25:47.087Z,118.19
2023-02-02T00:26:47.152Z,104.30
2023-02-02T00:27:47.133Z,120.48
2023-02-02T00:28:47.120Z,128.40
2023-02-02T00:29:47.149Z,123.85
2023-02-02T00:30:47.170Z,124.22
2023-02-02T00:31:47.203Z,119.77
2023-02-02T00:32:47.183Z,122.00
2023-02-02T00:33:47.215Z,116.03
2023-02-02T00:34:47.236Z,118.25
2023-02-02T00:35:47.225Z,125.82
2023-02-02T00:36:47.274Z,101.90
2023-02-02T00:37:47.281Z,96.69
2023-02-02T05:23:52.850Z,137.35
2023-02-02T05:24:52.880Z,138.36
2023-02-02T05:25:52.888Z,133.95
2023-02-02T05:26:53.003Z,134.54
2023-02-02T05:27:52.926Z,132.36
2023-02-02T05:28:52.946Z,138.42
2023-02-02T05:29:52.977Z,143.33
2023-02-02T05:30:53.038Z,144.13
2023-02-02T05:31:53.059Z,140.80
2023-02-02T05:32:53.036Z,142.27
2023-02-02T05:33:53.070Z,136.47
2023-02-02T05:34:53.074Z,140.33
2023-02-02T05:35:53.114Z,138.05
2023-02-02T05:36:53.122Z,136.40
2023-02-02T05:37:53.162Z,123.73
2023-02-02T05:38:53.176Z,137.56
2023-02-02T05:39:53.200Z,130.86
2023-02-02T05:40:53.222Z,134.04
2023-02-02T05:41:53.243Z,134.23
2023-02-02T05:42:53.284Z,134.85
2023-02-02T05:43:53.305Z,135.16
2023-02-02T05:44:53.323Z,138.63
2023-02-02T05:45:53.397Z,144.51
2023-02-02T05:46:53.382Z,144.44
2023-02-02T05:47:53.399Z,141.46
2023-02-02T05:48:53.418Z,142.70
2023-02-02T05:49:53.450Z,147.32
2023-02-02T05:50:53.465Z,144.17
2023-02-02T05:51:53.497Z,140.78
2023-02-02T05:52:53.536Z,142.34
2023-02-02T05:53:53.564Z,136.31
2023-02-02T05:54:53.562Z,134.81
2023-02-02T05:55:53.574Z,141.18
2023-02-02T05:56:53.587Z,142.48
2023-02-02T05:57:53.610Z,139.58
2023-02-02T05:58:53.650Z,145.09
2023-02-02T05:59:53.667Z,147.32
2023-02-02T06:00:56.425Z,143.18
2023-02-02T06:01:53.706Z,132.01
2023-02-02T06:02:53.745Z,140.64
2023-02-02T06:03:53.846Z,142.74
2023-02-02T06:04:53.764Z,146.66
2023-02-02T06:05:53.785Z,151.25
2023-02-02T06:06:53.800Z,142.62
2023-02-02T06:07:53.828Z,151.62
2023-02-02T06:08:53.840Z,143.52
2023-02-02T06:09:53.867Z,150.78
2023-02-02T06:10:53.895Z,150.23
2023-02-02T06:11:53.914Z,148.84
2023-02-02T06:12:53.940Z,153.31
2023-02-02T06:13:53.976Z,154.95
2023-02-02T06:14:53.999Z,155.33
2023-02-02T06:15:54.087Z,157.10
2023-02-02T06:16:54.049Z,159.54
2023-02-02T06:17:54.061Z,158.15
2023-02-02T06:18:54.089Z,163.52
2023-02-02T06:19:54.117Z,163.55
2023-02-02T06:20:54.123Z,161.24
2023-02-02T06:21:54.150Z,165.68
2023-02-02T06:22:54.162Z,170.19
2023-02-02T06:23:54.188Z,175.91
2023-02-02T06:24:54.199Z,175.62
2023-02-02T06:25:54.232Z,176.58
2023-02-02T06:26:54.343Z,180.67
2023-02-02T06:27:54.272Z,187.83
2023-02-02T06:28:54.280Z,187.13
2023-02-02T06:29:54.313Z,187.18
2023-02-02T06:30:54.475Z,185.74
2023-02-02T06:31:54.539Z,190.37
2023-02-02T06:32:54.352Z,192.58
2023-02-02T06:33:54.384Z,195.78
2023-02-02T06:34:54.413Z,202.80
2023-02-02T06:35:54.444Z,210.71
2023-02-02T06:36:54.432Z,208.03
2023-02-02T06:37:54.461Z,210.82
2023-02-02T06:38:54.497Z,211.34
2023-02-02T06:39:54.501Z,215.43
2023-02-02T06:40:54.504Z,214.67
2023-02-02T06:41:54.531Z,213.97
2023-02-02T06:42:54.549Z,218.68
2023-02-02T06:43:54.573Z,225.25
2023-02-02T06:44:54.575Z,217.89
2023-02-02T06:45:54.640Z,226.36
2023-02-02T06:46:55.572Z,242.19
2023-02-02T06:47:54.612Z,237.14
2023-02-02T06:48:54.656Z,246.83
2023-02-02T06:49:54.648Z,249.56
2023-02-02T06:50:54.648Z,248.87
2023-02-02T06:51:54.651Z,249.30
2023-02-02T06:52:54.677Z,249.71
2023-02-02T06:53:54.678Z,250.22
2023-02-02T06:54:54.665Z,253.76
2023-02-02T06:55:54.678Z,266.44
2023-02-02T06:56:54.683Z,287.64
2023-02-02T06:57:54.725Z,320.07
2023-02-02T06:58:54.701Z,299.18
2023-02-02T06:59:54.706Z,277.93
2023-02-02T07:00:54.691Z,259.26
2023-02-02T07:01:54.739Z,250.00
2023-02-02T07:02:54.757Z,249.45
2023-02-02T07:03:54.688Z,250.00
2023-02-02T07:04:54.702Z,249.61
2023-02-02T07:05:54.695Z,249.46
2023-02-02T07:06:54.715Z,249.78
2023-02-02T07:07:54.698Z,249.05
2023-02-02T07:09:02.149Z,249.37
2023-02-02T07:09:58.408Z,249.66
2023-02-02T07:11:15.171Z,249.72
2023-02-02T07:11:55.734Z,249.92
2023-02-02T07:12:54.722Z,251.37
2023-02-02T07:13:54.727Z,254.21
2023-02-02T07:14:54.730Z,258.59
2023-02-02T07:15:54.804Z,266.18
2023-02-02T07:16:54.731Z,250.12
2023-02-02T07:17:54.724Z,252.56
2023-02-02T07:18:54.734Z,255.22
2023-02-02T07:19:54.737Z,260.39
2023-02-02T07:20:54.740Z,256.72
2023-02-02T07:21:54.730Z,233.22
2023-02-02T07:22:54.738Z,208.48
2023-02-02T07:23:54.744Z,185.40
2023-02-02T07:24:54.773Z,174.34
2023-02-02T07:25:54.771Z,160.78
2023-02-02T07:26:54.828Z,152.37
2023-02-02T07:27:54.805Z,130.16
2023-02-02T07:28:54.827Z,135.18
2023-02-02T07:29:54.847Z,113.75
2023-02-02T07:30:54.970Z,104.08
2023-02-02T07:31:54.964Z,94.86
2023-02-02T07:32:54.891Z,92.29
2023-02-02T07:33:54.917Z,78.99
2023-02-02T07:34:54.956Z,72.76
2023-02-02T07:35:54.943Z,63.64
2023-02-02T07:36:54.962Z,57.34
2023-02-02T07:37:54.975Z,52.69
2023-02-02T07:38:55.005Z,47.11
2023-02-02T07:39:55.019Z,37.59
2023-02-02T07:40:55.040Z,30.06
2023-02-02T07:41:55.064Z,59.64
2023-02-02T07:42:55.085Z,101.82
2023-02-02T07:43:55.100Z,125.96
2023-02-02T07:44:55.131Z,139.83
2023-02-02T07:45:55.138Z,154.86
2023-02-02T07:46:55.363Z,169.41
2023-02-02T07:47:57.594Z,162.58
2023-02-02T07:48:55.255Z,97.09
2023-02-02T07:49:55.258Z,55.48
2023-02-02T07:50:55.269Z,25.00
2023-02-02T07:51:55.374Z,23.90
2023-02-02T07:52:55.327Z,55.96
2023-02-02T07:53:55.364Z,81.59
2023-02-02T07:55:05.370Z,106.62
2023-02-02T07:55:56.489Z,107.33
2023-02-02T07:56:55.521Z,111.27
2023-02-02T07:57:55.641Z,118.34
2023-02-02T07:58:55.582Z,127.67
2023-02-02T07:59:55.599Z,149.90
2023-02-02T08:00:55.699Z,155.60
2023-02-02T08:01:55.671Z,161.89
2023-02-02T08:02:55.734Z,144.68
2023-02-02T08:03:55.688Z,154.35
2023-02-02T08:04:55.725Z,161.41
2023-02-02T08:05:55.722Z,160.64
2023-02-02T08:06:55.767Z,166.72
2023-02-02T08:07:55.750Z,146.80
2023-02-02T08:08:55.786Z,148.27
2023-02-02T08:09:55.815Z,157.00
2023-02-02T08:10:55.828Z,142.93
2023-02-02T08:11:55.818Z,132.03
2023-02-02T08:12:55.856Z,134.28
2023-02-02T08:13:55.858Z,138.86
2023-02-02T08:14:55.946Z,151.95
2023-02-02T08:15:55.901Z,155.22
2023-02-02T08:16:55.955Z,151.62
2023-02-02T08:17:55.975Z,146.73
2023-02-02T08:18:55.967Z,148.95
2023-02-02T08:19:55.989Z,141.91
2023-02-02T08:20:56.013Z,136.18
2023-02-02T08:21:56.022Z,116.64
2023-02-02T08:22:56.041Z,141.69
2023-02-02T08:23:56.071Z,133.00
2023-02-02T08:24:56.091Z,145.77
2023-02-02T08:25:56.123Z,143.57
2023-02-02T08:26:56.159Z,131.50
2023-02-02T08:27:56.219Z,130.18
2023-02-02T08:28:56.156Z,129.30
2023-02-02T08:29:56.160Z,119.98
2023-02-02T08:30:56.268Z,130.42
2023-02-02T08:31:56.285Z,135.11
2023-02-02T08:32:56.231Z,120.05
2023-02-02T08:33:56.269Z,120.01
2023-02-02T08:34:56.274Z,112.41
2023-02-02T08:35:56.316Z,118.36
2023-02-02T08:36:56.338Z,116.45
2023-02-02T08:37:56.364Z,114.99
2023-02-02T08:38:56.507Z,126.62
2023-02-02T08:39:56.486Z,135.14
2023-02-02T08:40:56.413Z,145.56
2023-02-02T08:41:56.447Z,156.65
2023-02-02T08:42:56.448Z,160.37
2023-02-02T08:43:56.654Z,160.52
2023-02-02T08:46:03.304Z,161.02
2023-02-02T08:46:04.070Z,160.76
2023-02-02T08:46:57.611Z,160.90
2023-02-02T08:48:10.739Z,162.48
2023-02-02T08:48:57.581Z,161.03
2023-02-02T08:49:56.559Z,163.21
2023-02-02T08:50:56.603Z,161.12
2023-02-02T08:51:56.606Z,163.23
2023-02-02T08:52:56.640Z,161.24
2023-02-02T08:53:56.670Z,164.04
2023-02-02T08:54:56.674Z,169.86
2023-02-02T08:55:56.709Z,177.80
2023-02-02T08:56:56.742Z,185.96
2023-02-02T08:57:56.710Z,187.39
2023-02-02T08:58:56.742Z,186.11
2023-02-02T08:59:56.756Z,185.23
2023-02-02T09:00:56.846Z,185.95
2023-02-02T09:01:56.870Z,185.81
2023-02-02T09:02:56.815Z,177.68
2023-02-02T09:03:56.966Z,181.84
2023-02-02T09:04:57.648Z,183.37
2023-02-02T09:05:56.857Z,186.24
2023-02-02T09:06:56.898Z,186.40
2023-02-02T09:07:56.904Z,186.74
2023-02-02T09:08:56.932Z,187.22
2023-02-02T09:09:56.924Z,181.44
2023-02-02T09:10:56.938Z,187.54
2023-02-02T09:11:57.042Z,187.00
2023-02-02T09:12:56.976Z,188.51
2023-02-02T09:13:57.000Z,189.91
2023-02-02T09:14:57.006Z,190.01
2023-02-02T09:15:57.015Z,189.69
2023-02-02T09:16:57.118Z,189.12
2023-02-02T09:17:57.080Z,181.92
2023-02-02T09:18:57.078Z,185.39
2023-02-02T09:19:57.093Z,188.21
2023-02-02T09:20:57.085Z,186.58
2023-02-02T09:21:57.124Z,185.95
2023-02-02T09:22:57.123Z,186.10
2023-02-02T09:23:57.131Z,186.12
2023-02-02T09:24:57.170Z,186.05
2023-02-02T09:25:57.162Z,186.01
2023-02-02T09:26:57.289Z,186.10
2023-02-02T09:27:57.198Z,186.23
2023-02-02T09:28:57.251Z,186.82
2023-02-02T09:29:57.238Z,183.57
2023-02-02T09:30:57.308Z,187.79
2023-02-02T09:31:57.524Z,190.58
2023-02-02T09:32:57.302Z,197.47
2023-02-02T09:33:57.287Z,203.98
2023-02-02T09:34:57.319Z,206.81
2023-02-02T09:35:57.316Z,211.04
2023-02-02T09:36:57.352Z,212.66
2023-02-02T09:37:57.355Z,214.76
2023-02-02T09:38:57.350Z,215.81
2023-02-02T09:39:57.354Z,216.52
2023-02-02T09:40:57.368Z,216.74
2023-02-02T09:41:57.395Z,218.22
2023-02-02T09:42:57.397Z,221.46
2023-02-02T09:43:57.398Z,226.38
2023-02-02T09:44:57.407Z,230.68
2023-02-02T09:45:57.449Z,230.06
2023-02-02T09:46:57.450Z,231.44
2023-02-02T09:47:57.438Z,227.50
2023-02-02T09:48:57.446Z,228.64
2023-02-02T09:49:57.470Z,228.97
2023-02-02T09:50:57.474Z,231.61
2023-02-02T09:51:57.480Z,232.40
2023-02-02T09:52:57.512Z,227.43
2023-02-02T09:53:57.516Z,218.83
2023-02-02T09:54:57.553Z,220.22
2023-02-02T09:55:57.529Z,222.85
2023-02-02T09:56:57.548Z,231.16
2023-02-02T09:57:57.558Z,228.69
2023-02-02T09:59:02.175Z,230.60
2023-02-02T09:59:58.577Z,232.54
2023-02-02T10:00:57.664Z,232.86
2023-02-02T10:01:57.592Z,234.62
2023-02-02T10:02:57.596Z,242.24
2023-02-02T10:03:57.635Z,249.05
2023-02-02T10:04:57.623Z,248.74
2023-02-02T10:05:57.657Z,250.00
2023-02-02T10:06:57.644Z,250.46
2023-02-02T10:07:57.643Z,248.96
2023-02-02T10:08:57.638Z,248.75
2023-02-02T10:09:57.739Z,250.00
2023-02-02T10:10:57.701Z,249.11
2023-02-02T10:11:57.704Z,249.89
2023-02-02T10:12:57.682Z,250.00
2023-02-02T10:13:57.701Z,250.18
2023-02-02T10:14:57.777Z,250.60
2023-02-02T10:15:59.316Z,250.24
2023-02-02T10:16:57.706Z,251.13
2023-02-02T10:17:57.739Z,252.77
2023-02-02T10:18:57.727Z,255.24
2023-02-02T10:19:57.716Z,259.27
2023-02-02T10:20:57.728Z,249.58
2023-02-02T10:21:57.740Z,249.28
2023-02-02T10:22:57.759Z,250.00
2023-02-02T10:23:57.777Z,248.85
2023-02-02T10:24:57.763Z,249.10
2023-02-02T10:25:57.781Z,250.00
2023-02-02T10:26:57.861Z,249.99
2023-02-02T10:27:57.789Z,249.15
2023-02-02T10:28:57.774Z,249.33
2023-02-02T10:29:57.790Z,249.56
2023-02-02T10:30:57.883Z,250.24
2023-02-02T10:31:57.936Z,251.21
2023-02-02T10:33:00.241Z,251.87
2023-02-02T10:33:57.814Z,255.57
2023-02-02T10:35:12.264Z,249.51
2023-02-02T10:35:58.816Z,249.69
2023-02-02T10:36:57.868Z,249.98
2023-02-02T10:37:57.826Z,250.68
2023-02-02T10:38:57.838Z,251.83
2023-02-02T10:39:57.946Z,253.91
2023-02-02T10:40:57.849Z,249.95
2023-02-02T10:41:57.868Z,249.63
2023-02-02T10:42:58.066Z,250.00
2023-02-02T10:43:57.858Z,250.23
2023-02-02T10:44:57.864Z,251.03
2023-02-02T10:45:57.977Z,252.20
2023-02-02T10:46:57.874Z,253.91
2023-02-02T10:47:57.900Z,255.30
2023-02-02T10:48:59.955Z,249.11
2023-02-02T10:49:57.909Z,248.68
2023-02-02T10:50:57.912Z,245.56
2023-02-02T10:51:57.923Z,242.66
2023-02-02T10:52:57.925Z,241.08
2023-02-02T10:53:57.911Z,239.41
2023-02-02T10:54:59.432Z,236.17
2023-02-02T10:55:57.928Z,236.21
2023-02-02T10:56:57.952Z,234.23
2023-02-02T10:57:57.951Z,231.20
2023-02-02T10:58:57.970Z,229.41
2023-02-02T10:59:57.991Z,230.91
2023-02-02T11:00:57.996Z,227.77
2023-02-02T11:02:03.722Z,225.17
2023-02-02T11:02:59.136Z,226.30
2023-02-02T11:03:57.994Z,222.75
2023-02-02T11:04:57.999Z,220.39
2023-02-02T11:05:58.010Z,218.71
2023-02-02T11:07:00.488Z,215.80
2023-02-02T11:07:58.093Z,216.73
2023-02-02T11:08:58.039Z,213.25
2023-02-02T11:09:58.050Z,210.90
2023-02-02T11:10:58.068Z,211.61
2023-02-02T11:11:58.052Z,209.98
2023-02-02T11:13:00.066Z,207.09
2023-02-02T11:13:58.104Z,206.71
2023-02-02T11:14:58.115Z,204.65
2023-02-02T11:16:01.691Z,202.80
2023-02-02T11:16:59.108Z,204.31
2023-02-02T11:17:58.122Z,199.70
2023-02-02T11:18:58.121Z,197.07
2023-02-02T11:19:58.118Z,195.08
2023-02-02T11:20:58.124Z,194.91
2023-02-02T11:21:58.130Z,192.91
2023-02-02T11:22:58.124Z,191.52
2023-02-02T11:23:58.136Z,189.56
2023-02-02T11:24:58.134Z,187.65
2023-02-02T11:25:58.135Z,186.55
2023-02-02T11:26:58.233Z,185.11
2023-02-02T11:27:58.150Z,184.40
2023-02-02T11:29:00.012Z,183.43
2023-02-02T11:29:58.312Z,182.73
2023-02-02T11:30:58.423Z,183.99
2023-02-02T11:31:58.379Z,182.28
2023-02-02T11:32:58.319Z,187.16
2023-02-02T11:33:58.348Z,198.18
2023-02-02T11:34:58.355Z,204.64
2023-02-02T11:35:58.353Z,204.82
2023-02-02T11:36:58.355Z,205.69
2023-02-02T11:37:58.355Z,206.78
2023-02-02T11:38:58.354Z,209.44
2023-02-02T11:39:58.374Z,212.08
2023-02-02T11:40:58.364Z,212.66
2023-02-02T11:41:58.367Z,211.79
2023-02-02T11:42:58.374Z,212.28
2023-02-02T11:43:58.426Z,211.27
2023-02-02T11:44:58.404Z,209.87
2023-02-02T11:46:00.221Z,209.19
2023-02-02T11:46:58.403Z,209.10
2023-02-02T11:47:58.373Z,208.29
2023-02-02T11:48:58.388Z,209.13
2023-02-02T11:49:59.180Z,208.62
2023-02-02T11:50:58.415Z,208.69
2023-02-02T11:52:58.388Z,209.17
2023-02-02T11:53:58.420Z,209.75
2023-02-02T11:54:58.415Z,210.11
2023-02-02T11:55:58.414Z,209.49
2023-02-02T11:56:58.417Z,210.27
2023-02-02T11:57:58.481Z,209.98
2023-02-02T11:58:58.431Z,210.59
2023-02-02T11:59:58.443Z,210.27
2023-02-02T12:00:58.460Z,209.81
2023-02-02T12:01:58.513Z,209.99
2023-02-02T12:02:58.463Z,211.38
2023-02-02T12:03:58.508Z,209.95
2023-02-02T12:04:58.473Z,210.07
2023-02-02T12:05:58.505Z,211.10
2023-02-02T12:06:58.509Z,211.76
2023-02-02T12:07:58.507Z,210.78
2023-02-02T12:08:58.528Z,210.87
2023-02-02T12:09:58.519Z,209.97
2023-02-02T12:10:58.555Z,210.97
2023-02-02T12:11:58.550Z,209.82
2023-02-02T12:12:58.543Z,210.76
2023-02-02T12:13:58.557Z,209.69
2023-02-02T12:14:58.568Z,209.66
2023-02-02T12:15:58.610Z,208.90
2023-02-02T12:16:58.583Z,209.76
2023-02-02T12:17:58.593Z,209.32
2023-02-02T12:18:58.635Z,209.15
2023-02-02T12:19:58.603Z,208.72
2023-02-02T12:20:58.629Z,209.56
2023-02-02T12:21:58.632Z,207.75
2023-02-02T12:22:58.640Z,208.43
2023-02-02T12:23:58.674Z,208.13
2023-02-02T12:24:58.703Z,208.27
2023-02-02T12:25:58.701Z,207.77
2023-02-02T12:26:58.718Z,207.36
2023-02-02T12:27:58.685Z,207.54
2023-02-02T12:28:58.692Z,206.70
2023-02-02T12:29:58.781Z,206.95
2023-02-02T12:30:58.758Z,207.21
2023-02-02T12:31:58.747Z,206.07
2023-02-02T12:32:58.729Z,205.67
2023-02-02T12:33:58.728Z,205.89
2023-02-02T12:34:58.749Z,205.94
2023-02-02T12:35:58.751Z,205.51
2023-02-02T12:36:58.759Z,205.15
2023-02-02T12:37:58.745Z,205.64
2023-02-02T12:38:58.756Z,205.55
2023-02-02T12:39:58.765Z,205.77
2023-02-02T12:40:58.773Z,205.53
2023-02-02T12:41:58.766Z,203.90
2023-02-02T12:42:58.765Z,203.60
2023-02-02T12:43:58.778Z,203.60
2023-02-02T12:44:58.787Z,202.95
2023-02-02T12:45:58.865Z,203.59
2023-02-02T12:46:58.802Z,203.92
2023-02-02T12:47:58.809Z,203.41
2023-02-02T12:48:58.806Z,203.10
2023-02-02T12:49:58.820Z,202.96
2023-02-02T12:50:58.828Z,202.12
2023-02-02T12:51:58.849Z,201.46
2023-02-02T12:52:59.186Z,202.08
2023-02-02T12:54:34.761Z,200.95
2023-02-02T12:54:59.889Z,201.07
2023-02-02T12:55:58.873Z,201.10
2023-02-02T12:56:58.892Z,201.50
2023-02-02T12:57:58.896Z,201.32
2023-02-02T12:58:58.882Z,201.30
2023-02-02T12:59:58.950Z,199.71
2023-02-02T13:00:58.913Z,199.93
2023-02-02T13:01:58.882Z,199.31
2023-02-02T13:02:58.885Z,199.18
2023-02-02T13:03:58.899Z,198.38
2023-02-02T13:04:58.921Z,198.29
2023-02-02T13:05:58.909Z,198.11
2023-02-02T13:06:58.905Z,197.78
2023-02-02T13:07:58.941Z,197.78
2023-02-02T13:08:58.951Z,197.43
2023-02-02T13:09:58.932Z,197.76
2023-02-02T13:10:58.944Z,196.94
2023-02-02T13:11:58.955Z,196.76
2023-02-02T13:12:58.961Z,197.07
2023-02-02T13:13:58.957Z,197.15
2023-02-02T13:14:58.953Z,197.10
2023-02-02T13:15:58.990Z,195.79
2023-02-02T13:16:58.969Z,196.38
2023-02-02T13:17:58.975Z,194.46
2023-02-02T13:18:58.989Z,197.12
2023-02-02T13:19:58.982Z,195.89
2023-02-02T13:20:58.992Z,195.43
2023-02-02T13:21:59.005Z,194.91
2023-02-02T13:22:59.001Z,195.50
2023-02-02T13:23:59.005Z,193.80
2023-02-02T13:25:00.157Z,194.48
2023-02-02T13:25:59.061Z,194.82
2023-02-02T13:26:59.088Z,193.39
2023-02-02T13:27:59.043Z,192.97
2023-02-02T13:28:59.045Z,192.98
2023-02-02T13:29:59.050Z,193.68
2023-02-02T13:30:59.113Z,192.61
2023-02-02T13:31:59.079Z,192.58
2023-02-02T13:32:59.052Z,192.66
2023-02-02T13:33:59.120Z,192.69
2023-02-02T13:34:59.090Z,192.42
2023-02-02T13:35:59.091Z,191.96
2023-02-02T13:36:59.082Z,191.63
2023-02-02T13:37:59.098Z,191.68
2023-02-02T13:38:59.089Z,190.36
2023-02-02T13:39:59.098Z,190.51
2023-02-02T13:40:59.098Z,189.86
2023-02-02T13:41:59.116Z,190.25
2023-02-02T13:42:59.119Z,190.37
2023-02-02T13:43:59.170Z,189.22
2023-02-02T13:44:59.135Z,189.69
2023-02-02T13:45:59.150Z,189.76
2023-02-02T13:46:59.162Z,189.85
2023-02-02T13:47:59.162Z,188.94
2023-02-02T13:48:59.166Z,189.37
2023-02-02T13:49:59.182Z,189.23
2023-02-02T13:50:59.183Z,189.73
2023-02-02T13:51:59.203Z,189.72
2023-02-02T13:52:59.197Z,188.77
2023-02-02T13:53:59.203Z,188.21
2023-02-02T13:54:59.204Z,188.15
2023-02-02T13:55:59.223Z,187.85
2023-02-02T13:56:59.233Z,187.38
2023-02-02T13:57:59.277Z,187.46
2023-02-02T13:58:59.265Z,187.19
2023-02-02T13:59:59.277Z,186.63
2023-02-02T14:01:59.270Z,186.56
2023-02-02T14:02:59.272Z,185.92
2023-02-02T14:03:59.310Z,185.28
2023-02-02T14:04:59.296Z,184.76
2023-02-02T14:05:59.319Z,184.74
2023-02-02T14:06:59.334Z,184.91
2023-02-02T14:07:59.313Z,183.74
2023-02-02T14:08:59.355Z,183.86
2023-02-02T14:09:59.347Z,183.95
2023-02-02T14:10:59.353Z,183.96
2023-02-02T14:11:59.353Z,184.14
2023-02-02T14:13:01.495Z,183.83
2023-02-02T14:13:59.375Z,183.83
2023-02-02T14:14:59.381Z,183.43
2023-02-02T14:15:59.560Z,183.37
2023-02-02T14:16:59.380Z,182.98
2023-02-02T14:17:59.388Z,183.71
2023-02-02T14:19:59.419Z,183.25
2023-02-02T14:20:59.416Z,184.16
2023-02-02T14:21:59.420Z,185.00
2023-02-02T14:22:59.427Z,185.03
2023-02-02T14:23:59.419Z,184.88
2023-02-02T14:24:59.421Z,183.79
2023-02-02T14:25:59.425Z,183.97
2023-02-02T14:26:59.574Z,182.65
2023-02-02T14:27:59.465Z,181.80
2023-02-02T14:28:59.461Z,182.17
2023-02-02T14:29:59.464Z,181.94
2023-02-02T14:30:59.520Z,181.15
2023-02-02T14:31:59.537Z,182.28
2023-02-02T14:32:59.499Z,180.65
2023-02-02T14:33:59.503Z,180.13
2023-02-02T14:34:59.508Z,179.42
2023-02-02T14:36:01.341Z,179.53
2023-02-02T14:36:59.535Z,181.51
2023-02-02T14:37:59.531Z,179.84
2023-02-02T14:38:59.546Z,179.73
2023-02-02T14:39:59.557Z,178.77
2023-02-02T14:40:59.551Z,178.40
2023-02-02T14:42:00.896Z,179.33
2023-02-02T14:42:59.572Z,178.51
2023-02-02T14:43:59.604Z,177.38
2023-02-02T14:44:59.592Z,177.69
2023-02-02T14:45:59.616Z,178.61
2023-02-02T14:46:59.610Z,177.37
2023-02-02T14:48:00.666Z,176.68
2023-02-02T14:48:59.662Z,177.01
2023-02-02T14:49:59.723Z,176.36
2023-02-02T14:50:59.695Z,176.19
2023-02-02T14:51:59.737Z,177.20
2023-02-02T14:52:59.704Z,175.69
2023-02-02T14:54:01.263Z,175.10
2023-02-02T14:54:59.971Z,176.21
2023-02-02T14:55:59.788Z,175.14
2023-02-02T14:56:59.777Z,175.04
2023-02-02T14:57:59.810Z,175.37
2023-02-02T14:59:00.045Z,174.61
2023-02-02T15:00:01.452Z,174.82
2023-02-02T15:00:59.963Z,174.73
2023-02-02T15:02:00.108Z,174.37
2023-02-02T15:03:00.124Z,174.25
2023-02-02T15:04:00.008Z,173.71
2023-02-02T15:05:00.157Z,174.28
2023-02-02T15:06:00.271Z,172.50
2023-02-02T15:07:00.034Z,173.54
2023-02-02T15:08:00.130Z,173.71
2023-02-02T15:09:00.171Z,173.16
2023-02-02T15:10:00.246Z,172.55
2023-02-02T15:11:00.319Z,173.47
2023-02-02T15:12:01.622Z,171.66
2023-02-02T15:13:00.443Z,173.15
2023-02-02T15:14:00.420Z,171.86
2023-02-02T15:15:00.419Z,172.71
2023-02-02T15:16:00.479Z,170.95
2023-02-02T15:17:00.456Z,171.04
2023-02-02T15:18:01.129Z,171.20
2023-02-02T15:19:00.474Z,171.99
2023-02-02T15:20:00.486Z,170.71
2023-02-02T15:21:00.518Z,171.36
2023-02-02T15:22:00.683Z,169.64
2023-02-02T15:23:00.503Z,170.61
2023-02-02T15:24:00.523Z,169.62
2023-02-02T15:25:00.548Z,169.97
2023-02-02T15:26:00.576Z,169.77
2023-02-02T15:27:00.671Z,169.55
2023-02-02T15:30:00.849Z,169.66
2023-02-02T15:31:01.098Z,169.91
2023-02-02T15:32:01.027Z,169.37
2023-02-02T15:33:01.044Z,169.39
2023-02-02T15:34:01.181Z,169.13
2023-02-02T15:35:01.200Z,168.48
2023-02-02T15:36:01.269Z,167.98
2023-02-02T15:37:01.334Z,168.35
2023-02-02T15:38:01.407Z,168.62
2023-02-02T15:39:01.477Z,167.82
2023-02-02T15:40:01.694Z,167.82
2023-02-02T15:41:01.615Z,168.19
2023-02-02T15:42:01.692Z,167.39
2023-02-02T15:43:01.758Z,167.11
2023-02-02T15:44:01.826Z,166.72
2023-02-02T15:45:01.879Z,166.99
2023-02-02T15:46:01.970Z,166.73
2023-02-02T15:47:02.032Z,166.93
2023-02-02T15:48:02.132Z,166.87
2023-02-02T15:49:02.174Z,167.57
2023-02-02T15:50:02.235Z,166.32
2023-02-02T15:51:02.288Z,164.57
2023-02-02T15:52:02.366Z,165.96
2023-02-02T15:53:02.432Z,165.56
2023-02-02T15:54:02.530Z,166.14
2023-02-02T15:55:02.595Z,165.71
2023-02-02T15:56:02.662Z,165.75
2023-02-02T15:57:02.795Z,164.80
2023-02-02T15:58:02.805Z,165.25
2023-02-02T15:59:02.876Z,165.17
2023-02-02T16:00:02.960Z,164.61
2023-02-02T16:01:03.081Z,165.22
2023-02-02T16:02:03.166Z,164.19
2023-02-02T16:03:03.173Z,163.86
2023-02-02T16:04:03.294Z,164.37
2023-02-02T16:05:03.333Z,164.81
2023-02-02T16:06:03.403Z,163.18
2023-02-02T16:07:03.500Z,164.67
2023-02-02T16:08:06.037Z,163.58
2023-02-02T16:09:03.579Z,163.42
2023-02-02T16:10:03.605Z,163.45
2023-02-02T16:11:03.607Z,163.48
2023-02-02T16:12:03.617Z,162.57
2023-02-02T16:13:03.656Z,162.42
2023-02-02T16:14:03.652Z,161.83
2023-02-02T16:15:03.678Z,161.32
2023-02-02T16:16:03.713Z,162.29
2023-02-02T16:17:03.679Z,162.36
2023-02-02T16:18:03.689Z,163.41
2023-02-02T16:19:03.695Z,161.39
2023-02-02T16:20:03.726Z,161.82
2023-02-02T16:21:03.725Z,160.68
2023-02-02T16:22:03.739Z,161.03
2023-02-02T16:23:03.759Z,162.12
2023-02-02T16:24:03.781Z,160.71
2023-02-02T16:25:03.770Z,162.20
2023-02-02T16:26:03.777Z,162.25
2023-02-02T16:27:03.797Z,161.26
2023-02-02T16:28:03.814Z,161.63
2023-02-02T16:29:03.833Z,160.54
2023-02-02T16:30:03.852Z,160.13
2023-02-02T16:31:03.918Z,159.05
2023-02-02T16:32:03.937Z,160.46
2023-02-02T16:33:03.887Z,160.84
2023-02-02T16:34:03.914Z,159.40
2023-02-02T16:35:03.913Z,158.90
2023-02-02T16:36:06.116Z,159.96
2023-02-02T16:37:04.952Z,160.08
2023-02-02T16:38:03.935Z,160.23
2023-02-02T16:39:03.939Z,160.20
2023-02-02T16:40:03.965Z,159.82
2023-02-02T16:41:03.977Z,159.84
2023-02-02T16:42:04.032Z,160.41
2023-02-02T16:43:04.001Z,158.97
2023-02-02T16:44:04.012Z,161.12
2023-02-02T16:45:04.031Z,158.98
2023-02-02T16:46:04.064Z,157.85
2023-02-02T16:47:04.040Z,159.39
2023-02-02T16:48:04.085Z,158.34
2023-02-02T16:49:04.076Z,158.09
2023-02-02T16:50:04.087Z,157.75
2023-02-02T16:51:04.091Z,157.57
2023-02-02T16:52:04.103Z,156.46
2023-02-02T16:53:04.111Z,158.10
2023-02-02T17:02:04.339Z,155.73
2023-02-02T17:17:04.324Z,154.24
2023-02-02T17:55:04.703Z,150.46
2023-02-02T17:56:04.728Z,150.07
2023-02-02T17:57:04.729Z,151.79
2023-02-02T17:58:04.744Z,151.48
2023-02-02T17:59:04.740Z,150.54
